Washington, Nebraska
Current Conditions -  °F | °C
As of 11:55 AM on Monday 22 Dec 2014 (Local Time) from KBTA Reporting Station
Light Rain Light Rain  
Wind Chill: 38°   Ceiling: 400
Heat Index: 43°   Visibility: 5mi
Dew Point: 41°   Wind: 8mph
Humidity: 92%   Direction: 150°SSE
Pressure: 29.44"   Gusts: NA
Location:  41.4°N, 96.21°W
Report Text: KBTA 221755Z AUTO 15007KT 5SM -RA OVC004 06/05 A2944 RMK AO2 P0002 60022 T00600048 10060 20056
Loading
Personal Weather Stations






























Interactive Weather Map New forecast layout! Learn more

10-Day Weather Forecast

Advertisements
Track Severe Weather on mobile